Terminal Aerodrome Forecast
Issued by NWS

Home | Current Version | Previous Version | Graphics & Text | Print | Product List | Glossary On
Versions: 1 2 3 4 5 6 7 8 9 10 11 12
000
FTUS43 KTOP 150520
TAFMHK
TAF
KMHK 150520Z 1506/1606 34014G23KT P6SM BKN025
     FM150700 32012G19KT P6SM SCT025
     FM151000 32009KT P6SM FEW250
     FM160000 26003KT P6SM SKC=

USA.gov is the U.S. government's official web portal to all federal, state and local government web resources and services.